東京国際空港の過去48時間の天気

東京国際空港 (Tokyo/Intl)

現在時刻: 4/27 14:02 JST (4/27 05:02 UTC) 以下の時間は現地時間です。

過去48時間のMETAR気象情報
時間 風向 風速(m/s) 視程 気温(℃) 湿度(%) 気圧(hPa) 天気現象
27 13:30 7 10km以上 21 60 1007
27 13:00 8 10km以上 21 60 1008
27 12:30 6 10km以上 21 60 1008
27 12:00 7 10km以上 21 60 1008
27 11:30 6 10km以上 22 53 1009
27 11:00 南南東 6 10km以上 21 56 1010
27 10:30 5 10km以上 20 64 1010
27 10:00 南東 3 10km以上 20 73 1011
27 09:30 東南東 5 10km以上 19 78 1011
27 09:00 南東 5 10km以上 19 78 1011
27 08:30 南南東 4 10km以上 20 73 1012
27 08:00 南南東 3 10km以上 19 78 1012
27 07:30 南南東 2 10km以上 18 83 1012
27 07:00 2 10km以上 18 83 1012
27 06:30 不定 1 10km以上 18 83 1013
27 06:00 1 10km以上 17 83 1013
27 05:30 南南西 2 10km以上 17 83 1013
27 05:00 南南西 3 10km以上 17 83 1013
27 04:30 南南西 3 10km以上 17 77 1012
27 04:00 3 10km以上 16 88 1012
27 03:30 4 10km以上 16 88 1012
27 03:00 南南西 4 10km以上 17 77 1013
27 02:30 南南西 4 10km以上 17 77 1013
27 02:00 南南西 3 10km以上 17 77 1013
27 01:30 南南西 3 10km以上 18 73 1013
27 01:00 南南西 4 10km以上 18 73 1013
27 00:30 南南西 4 10km以上 18 73 1013
27 00:00 南南西 4 10km以上 18 68 1013
26 23:30 南南西 5 10km以上 18 64 1013
26 23:00 南南西 5 10km以上 18 68 1014
26 22:30 6 10km以上 18 64 1014
26 22:00 南南西 5 10km以上 18 64 1013
26 21:30 南南西 5 10km以上 18 68 1014
26 21:00 南南西 5 10km以上 18 68 1014
26 20:30 5 10km以上 18 68 1014
26 20:00 7 10km以上 18 68 1013
26 19:30 6 10km以上 18 60 1013
26 19:00 南南西 6 10km以上 18 68 1013
26 18:30 6 10km以上 18 64 1013
26 18:00 8 10km以上 19 64 1012
26 17:30 8 10km以上 19 64 1012
26 17:00 7 10km以上 19 64 1011
26 16:30 8 10km以上 20 60 1011
26 16:00 6 10km以上 22 43 1010
26 15:46 7 10km以上 21 53 1010
26 15:30 東南東 7 10km以上 21 60 1010
26 15:00 6 10km以上 21 56 1010
26 14:37 6 10km以上 22 50 1010
26 14:30 北東 6 10km以上 23 33 1010
26 14:00 北東 5 10km以上 23 31 1010
26 13:30 北北東 5 10km以上 23 31 1010
26 13:00 7 10km以上 23 31 1010
26 12:30 7 10km以上 23 29 1010
26 12:00 7 10km以上 22 33 1010
26 11:30 9 10km以上 22 33 1009
26 11:00 10 10km以上 22 33 1009
26 10:30 北北西 9 10km以上 21 35 1009
26 10:00 9 10km以上 21 40 1009
26 09:30 5 10km以上 20 43 1009
26 09:00 北北西 7 10km以上 20 37 1009
26 08:30 北北西 8 10km以上 19 46 1008
26 08:00 7 10km以上 18 49 1008
26 07:30 10 10km以上 17 52 1008
26 07:00 9 10km以上 17 55 1007
26 06:30 10 10km以上 17 52 1007
26 06:05 9 10km以上 17 48 1006
26 06:00 8 10km以上 17 52 1006
26 05:30 7 10km以上 17 52 1006
26 05:00 7 10km以上 17 63 1005
26 04:30 北北東 7 10km以上 17 68 1005
26 04:00 北北東 7 10km以上 17 77 1004
26 03:30 北北東 6 10km以上 17 83 1004
26 03:00 6 10km以上 17 88 1004
26 02:30 6 10km以上 16 94 1003
26 02:00 北北東 6 10km以上 16 94 1003
26 01:30 北東 5 10km以上 16 94 1002
26 01:00 北北東 6 10km以上 16 94 1002
26 00:30 北北東 6 10km以上 16 100 1002
26 00:00 北東 7 10km以上 17 94 1002 弱いしゅう雨
25 23:40 北東 6 10km以上 17 100 1001 弱いしゅう雨
25 23:30 北北東 7 8,000m 18 94 1001 弱いしゅう雨
25 23:14 北東 6 8,000m 18 94 1001 弱いしゅう雨
25 23:00 東北東 6 10km以上 18 100 1001 弱いしゅう雨
25 22:30 5 10km以上 19 83 1001
25 22:00 南南東 5 10km以上 18 94 1000
25 21:30 5 10km以上 19 88 1000
25 21:00 4 10km以上 19 88 1000
25 20:30 5 10km以上 19 88 1000
25 20:00 南南東 4 10km以上 19 94 1000
25 19:30 南南東 4 10km以上 19 94 999 周辺でしゅう雨
25 19:00 2 10km以上 21 83 999
25 18:30 3 10km以上 20 88 998
25 18:00 5 10km以上 20 88 998
25 17:30 7 10km以上 20 88 998
25 17:00 6 10km以上 21 83 998
25 16:30 南南東 5 10km以上 21 83 997
25 16:00 東南東 3 10km以上 19 94 997
25 15:30 東南東 3 10km以上 20 88 997
25 15:00 3 10km以上 20 88 997
25 14:30 北北東 2 10km以上 20 88 997
RJTT 270430Z 17013KT 9999 FEW025 BKN160 BKN/// 21/13 Q1007 NOSIG
RJTT 270400Z 17015KT 9999 FEW025 BKN160 BKN/// 21/13 Q1008 NOSIG RMK 1CU025 6AC160 A2977
RJTT 270330Z 18012KT 9999 FEW025 BKN160 BKN/// 21/13 Q1008 NOSIG
RJTT 270300Z 17013KT 9999 FEW025 BKN170 BKN/// 21/13 Q1008 NOSIG RMK 1CU025 5AC170 A2979
RJTT 270230Z 17012KT 9999 FEW025 BKN170 BKN/// 22/12 Q1009 NOSIG
RJTT 270200Z 16011KT 9999 FEW025 SCT170 BKN/// 21/12 Q1010 NOSIG RMK 1CU025 4AC170 A2983
RJTT 270130Z 18009KT 9999 FEW025 SCT170 BKN/// 20/13 Q1010 NOSIG
RJTT 270100Z 13006KT 9999 FEW025 SCT170 BKN/// 20/15 Q1011 NOSIG RMK 1CU025 3AC170 A2986
RJTT 270030Z 12009KT 9999 FEW025 BKN/// 19/15 Q1011 NOSIG
RJTT 270000Z 13009KT 9999 FEW025 BKN/// 19/15 Q1011 NOSIG RMK 1CU025 A2987
RJTT 262330Z 15008KT 9999 FEW025 BKN/// 20/15 Q1012 NOSIG
RJTT 262300Z 15006KT 120V180 9999 FEW020 BKN/// 19/15 Q1012 NOSIG RMK 1CU020 A2989
RJTT 262230Z 16004KT 9999 FEW020 BKN190 BKN/// 18/15 Q1012 NOSIG
RJTT 262200Z 10004KT 070V130 9999 FEW020 BKN190 BKN/// 18/15 Q1012 NOSIG RMK 1CU020 6AC190 A2991
RJTT 262130Z VRB02KT 9999 FEW020 BKN190 BKN/// 18/15 Q1013 NOSIG
RJTT 262100Z 19002KT 9999 FEW020 BKN190 BKN/// 17/14 Q1013 NOSIG RMK 1CU020 6AC190 A2992
RJTT 262030Z 21003KT 9999 FEW025 BKN190 17/14 Q1013 NOSIG RMK 1CU025 6AC190 A2992
RJTT 262000Z 21005KT 9999 FEW025 BKN180 BKN/// 17/14 Q1013 BECMG 32004KT RMK 1CU025 5AC180 A2991
RJTT 261930Z 21005KT 170V240 CAVOK 17/13 Q1012 NOSIG RMK A2991
RJTT 261900Z 17006KT CAVOK 16/14 Q1012 NOSIG RMK A2990
RJTT 261830Z 17008KT CAVOK 16/14 Q1012 NOSIG RMK A2990
RJTT 261800Z 20008KT CAVOK 17/13 Q1013 NOSIG RMK A2992
RJTT 261730Z 20007KT CAVOK 17/13 Q1013 NOSIG RMK A2992
RJTT 261700Z 21005KT CAVOK 17/13 Q1013 NOSIG
RJTT 261630Z 21006KT CAVOK 18/13 Q1013 NOSIG RMK A2993
RJTT 261600Z 20007KT CAVOK 18/13 Q1013 NOSIG RMK A2993
RJTT 261530Z 20007KT 160V230 CAVOK 18/13 Q1013 NOSIG RMK A2994
RJTT 261500Z 21007KT CAVOK 18/12 Q1013 NOSIG RMK A2994
RJTT 261430Z 21010KT 170V230 CAVOK 18/11 Q1013 NOSIG RMK A2994
RJTT 261400Z 21010KT CAVOK 18/12 Q1014 NOSIG RMK A2995
RJTT 261330Z 19011KT CAVOK 18/11 Q1014 NOSIG RMK A2994
RJTT 261300Z 20010KT CAVOK 18/11 Q1013 NOSIG RMK A2994
RJTT 261230Z 20010KT CAVOK 18/12 Q1014 NOSIG RMK A2995
RJTT 261200Z 21010KT CAVOK 18/12 Q1014 NOSIG RMK A2995
RJTT 261130Z 19010KT CAVOK 18/12 Q1014 NOSIG RMK A2995
RJTT 261100Z 17013KT CAVOK 18/12 Q1013 NOSIG RMK A2994
RJTT 261030Z 19012KT CAVOK 18/10 Q1013 NOSIG RMK A2992
RJTT 261000Z 20011KT 9999 FEW030 BKN/// 18/12 Q1013 NOSIG RMK 1CU030 A2992
RJTT 260930Z 19012KT 9999 FEW030 BKN/// 18/11 Q1013 NOSIG
RJTT 260900Z 19015KT 9999 FEW030 BKN/// 19/12 Q1012 NOSIG RMK 1CU030 A2990
RJTT 260830Z 19016KT 9999 FEW030 BKN/// 19/12 Q1012 NOSIG
RJTT 260800Z 19014KT 9999 FEW030 BKN/// 19/12 Q1011 NOSIG
RJTT 260730Z 19015KT 9999 FEW030 BKN/// 20/12 Q1011 NOSIG
RJTT 260700Z 18011KT 9999 FEW030 BKN/// 22/09 Q1010 NOSIG RMK 1CU030 A2984
RJTT 260646Z 18013KT 9999 FEW030 BKN/// 21/11 Q1010 RMK 1CU030 A2984
RJTT 260630Z 12014KT 9999 FEW030 BKN/// 21/13 Q1010 NOSIG
RJTT 260600Z 10012KT 9999 FEW030 BKN/// 21/12 Q1010 NOSIG RMK 1CU030 A2983
RJTT 260537Z 10011KT 9999 FEW030 BKN/// 22/11 Q1010 RMK 1CU030 A2982
RJTT 260530Z 04012KT 9999 FEW030 BKN/// 23/06 Q1010 BECMG 12012KT RMK 1CU030 A2982
RJTT 260500Z 04010KT 9999 FEW030 BKN/// 23/05 Q1010 BECMG 10008KT RMK 1CU030 A2983
RJTT 260430Z 02010KT 9999 FEW030 BKN/// 23/05 Q1010 BECMG 10008KT
RJTT 260400Z 36014KT 9999 FEW020 BKN/// 23/05 Q1010 BECMG 10008KT RMK 1CU020 A2983
RJTT 260330Z 36013KT 9999 FEW020 BKN/// 23/04 Q1010 NOSIG
RJTT 260300Z 35014KT 9999 FEW020 BKN/// 22/05 Q1010 NOSIG RMK 1CU020 A2983
RJTT 260230Z 35018KT 9999 FEW020 BKN/// 22/05 Q1009 NOSIG
RJTT 260200Z 35019KT 9999 FEW020 SCT/// 22/05 Q1009 NOSIG RMK 1CU020 A2982
RJTT 260130Z 34017KT 9999 FEW020 SCT/// 21/05 Q1009 NOSIG
RJTT 260100Z 35018KT 9999 FEW020 21/07 Q1009 NOSIG RMK 1CU020 A2980
RJTT 260030Z 35009KT 310V020 9999 FEW020 20/07 Q1009 NOSIG RMK 1CU020 A2981
RJTT 260000Z 33013KT 9999 FEW020 20/05 Q1009 NOSIG RMK 1CU020 A2980
RJTT 252330Z 34015KT 9999 FEW020 19/07 Q1008 NOSIG RMK 1CU020 A2979
RJTT 252300Z 35014KT 9999 FEW015 18/07 Q1008 TEMPO 34018G28KT
RJTT 252230Z 35020KT 9999 FEW015 SCT/// 17/07 Q1008 TEMPO 34018G28KT RMK 1CU015 A2977
RJTT 252200Z 35017KT 9999 FEW015 SCT/// 17/08 Q1007 TEMPO 34018G28KT RMK 1CU015 A2976
RJTT 252130Z 35019KT 9999 FEW015 SCT/// 17/07 Q1007 TEMPO 34018G28KT
RJTT 252105Z 35017G27KT 9999 FEW015 17/06 Q1006 RMK 1CU015 A2973
RJTT 252100Z 35016KT 9999 FEW015 17/07 Q1006 TEMPO 34018G28KT RMK 1CU015 A2973
RJTT 252030Z 35014KT 9999 FEW015 17/07 Q1006 NOSIG RMK 1CU015 A2971
RJTT 252000Z 01013KT 9999 FEW010 SCT060 17/10 Q1005 NOSIG RMK 1CU010 4SC060 A2969
RJTT 251930Z 02013KT 9999 FEW010 BKN060 17/11 Q1005 NOSIG RMK 1CU010 6SC060 A2968
RJTT 251900Z 02013KT 9999 FEW010 BKN060 17/13 Q1004 NOSIG RMK 1CU010 6SC060 A2967
RJTT 251830Z 03011KT 9999 FEW010 BKN060 17/14 Q1004 NOSIG RMK 1CU010 6SC060 A2965
RJTT 251800Z 01012KT 9999 FEW008 SCT030 BKN060 17/15 Q1004 NOSIG RMK 1ST008 3CU030 6SC060 A2965
RJTT 251730Z 01011KT 9999 FEW008 SCT025 BKN060 16/15 Q1003 NOSIG RMK 1ST008 3CU025 6SC060 A2964
RJTT 251700Z 02011KT 9999 FEW008 SCT020 BKN060 16/15 Q1003 NOSIG RMK 1ST008 3CU020 6SC060 A2963
RJTT 251630Z 04010KT 9999 FEW008 SCT015 BKN060 16/15 Q1002 NOSIG RMK 1ST008 4CU015 6SC060 A2961
RJTT 251600Z 03012KT 9999 FEW006 SCT009 BKN045 16/15 Q1002 NOSIG RMK 1ST006 4CU009 7SC045 A2960
RJTT 251530Z 02012KT 9999 FEW006 BKN040 16/16 Q1002 NOSIG RMK 1ST006 7SC040 A2959
RJTT 251500Z 04013KT 9999 -SHRA FEW005 SCT007 BKN035 17/16 Q1002 NOSIG RMK 1ST005 3CU007 7SC035 A2959
RJTT 251440Z 05011KT 9999 -SHRA FEW006 SCT015 BKN025 17/17 Q1001 RMK 1ST006 3CU015 7SC025 A2959
RJTT 251430Z 03014KT 8000 -SHRA FEW004 SCT008 BKN012 18/17 Q1001 NOSIG RMK 1ST004 3ST008 5CU012 A2958
RJTT 251414Z 04012KT 8000 -SHRA FEW004 SCT006 BKN008 18/17 Q1001 RMK 1ST004 3ST006 5ST008 A2958
RJTT 251400Z 06011KT 9999 -SHRA FEW005 BKN015 BKN020 18/18 Q1001 BECMG FEW005 BKN012 RMK 2ST005 5CU015 7SC020 A2957
RJTT 251330Z 17009KT 9999 FEW015 BKN020 19/16 Q1001 BECMG TL1400 04008KT
RJTT 251300Z 16010KT 9999 FEW015 BKN025 18/17 Q1000 BECMG TL1400 04008KT RMK 1CU015 7SC025 A2955
RJTT 251230Z 18009KT 9999 FEW015 BKN025 BKN060 19/17 Q1000 BECMG 05008KT RMK 1CU015 5SC025 7SC060 A2955 MOD TURB OBS AT 1227Z COLOR 11000FT BY B738
RJTT 251200Z 18007KT 9999 FEW015 BKN060 BKN/// 19/17 Q1000 BECMG 05008KT RMK 1CU015 5SC060 A2955
RJTT 251130Z 17009KT 160V220 9999 FEW015 BKN060 BKN/// 19/17 Q1000 BECMG 05008KT RMK 1CU015 6SC060 A2954
RJTT 251100Z 16007KT 9999 FEW015 BKN060 19/18 Q1000 BECMG 05008KT
RJTT 251030Z 16007KT 130V190 9999 VCSH FEW020 BKN050 19/18 Q0999 BECMG 05008KT
RJTT 251000Z 18003KT 120V230 9999 FEW020 BKN050 BKN/// 21/18 Q0999 BECMG 32005KT
RJTT 250930Z 19005KT 160V250 9999 FEW020 BKN050 20/18 Q0998 NOSIG RMK 1CU020 7SC050 A2949
RJTT 250900Z 19010KT 9999 FEW020 BKN050 BKN/// 20/18 Q0998 NOSIG RMK 1CU020 6SC050 A2948
RJTT 250830Z 18013KT 9999 FEW020 SCT050 BKN/// 20/18 Q0998 NOSIG
RJTT 250800Z 17011KT 9999 FEW020 BKN/// 21/18 Q0998 NOSIG RMK 1CU020 A2948
RJTT 250730Z 16009KT 130V210 9999 FEW020 BKN/// 21/18 Q0997 NOSIG
RJTT 250700Z 11006KT 9999 FEW015 BKN020 BKN/// 19/18 Q0997 BECMG 20010KT RMK 1CU015 5CU020 A2947
RJTT 250630Z 11006KT 9999 FEW015 BKN020 BKN/// 20/18 Q0997 NOSIG
RJTT 250600Z 10006KT 9999 FEW015 BKN020 BKN/// 20/18 Q0997 NOSIG
RJTT 250530Z 02004KT 350V060 9999 FEW015 SCT020 20/18 Q0997 NOSIG